Terminal Aerodrome Forecast
Issued by NWS Dallas/Fort Worth, TX

Home | Current Version | Previous Version | Text Only | Print | Product List | Glossary On
Versions: 1 2 3 4 5 6 7 8 9 10 11 12 13 14 15 16 17 18 19 20 21 22 23 24 25 26 27 28
000
FTUS44 KFWD 280900 AAA
TAFDFW
TAF AMD
KDFW 280900Z 2809/2912 09006KT P6SM BKN040
     FM281200 08007KT P6SM BKN012
     FM281500 12010KT 6SM -RA BR OVC007
     FM282100 14014KT P6SM VCSH OVC015
     FM290000 15013KT P6SM VCTS SCT015CB BKN040
     FM290600 15012KT 5SM TSRA BKN040CB=

USA.gov is the U.S. government's official web portal to all federal, state and local government web resources and services.